AF1704 LFPG-EGKK
Flight info
| Callsign | AF1704 |
|---|---|
| Flight time | N/A |
| Altitude | 24000 |
| Route | OPALE DCT KESAX DCT KUNAV |
| Aircraft | A321/M-SDE3FGHIRWY/LB1 |
Departure
| Time | 2026-05-06 02:29 |
|---|---|
| Airport | Charles de Gaulle International Airport (LFPG) |
Arrival
| Time | N/A |
|---|---|
| Airport | London Gatwick Airport (EGKK) |
| Time | Latitude | Longitude | Altitude | Speed | Heading |
|---|---|---|---|---|---|
| 2026-05-06 02:10 | 49.01410 | 2.53867 | 354 ft | 0 kts | 57° |
| 2026-05-06 02:17 | 49.01408 | 2.53863 | 362 ft | 3 kts | 57° |
| 2026-05-06 02:17 | 49.01393 | 2.53829 | 360 ft | 4 kts | 57° |
| 2026-05-06 02:18 | 49.01379 | 2.53794 | 357 ft | 4 kts | 59° |
| 2026-05-06 02:18 | 49.01366 | 2.53759 | 357 ft | 4 kts | 62° |
| 2026-05-06 02:18 | 49.01357 | 2.53729 | 357 ft | 4 kts | 94° |
| 2026-05-06 02:18 | 49.01361 | 2.53707 | 361 ft | 4 kts | 135° |
| 2026-05-06 02:19 | 49.01380 | 2.53679 | 359 ft | 4 kts | 128° |
| 2026-05-06 02:19 | 49.01398 | 2.53649 | 360 ft | 4 kts | 139° |
| 2026-05-06 02:19 | 49.01414 | 2.53628 | 361 ft | 1 kts | 136° |
| 2026-05-06 02:19 | 49.01417 | 2.53624 | 362 ft | 0 kts | 136° |
| 2026-05-06 02:21 | 49.01416 | 2.53624 | 362 ft | 0 kts | 135° |
| 2026-05-06 02:21 | 49.01416 | 2.53633 | 360 ft | 1 kts | 99° |
| 2026-05-06 02:22 | 49.01431 | 2.53659 | 357 ft | 7 kts | 38° |
| 2026-05-06 02:22 | 49.01475 | 2.53668 | 358 ft | 5 kts | 330° |
| 2026-05-06 02:22 | 49.01536 | 2.53619 | 359 ft | 15 kts | 338° |
| 2026-05-06 02:22 | 49.01671 | 2.53590 | 361 ft | 24 kts | 355° |
| 2026-05-06 02:23 | 49.01785 | 2.53578 | 357 ft | 14 kts | 353° |
| 2026-05-06 02:23 | 49.01859 | 2.53507 | 358 ft | 13 kts | 292° |
| 2026-05-06 02:23 | 49.01859 | 2.53368 | 357 ft | 14 kts | 265° |
| 2026-05-06 02:23 | 49.01851 | 2.53225 | 355 ft | 14 kts | 269° |
| 2026-05-06 02:24 | 49.01843 | 2.53071 | 358 ft | 15 kts | 264° |
| 2026-05-06 02:24 | 49.01833 | 2.52900 | 355 ft | 16 kts | 265° |
| 2026-05-06 02:24 | 49.01825 | 2.52737 | 357 ft | 16 kts | 264° |
| 2026-05-06 02:24 | 49.01816 | 2.52560 | 362 ft | 16 kts | 266° |
| 2026-05-06 02:25 | 49.01819 | 2.52400 | 362 ft | 14 kts | 300° |
| 2026-05-06 02:25 | 49.01884 | 2.52294 | 363 ft | 13 kts | 290° |
| 2026-05-06 02:25 | 49.01884 | 2.52150 | 357 ft | 14 kts | 264° |
| 2026-05-06 02:25 | 49.01875 | 2.51993 | 358 ft | 16 kts | 265° |
| 2026-05-06 02:26 | 49.01868 | 2.51879 | 355 ft | 17 kts | 265° |
| 2026-05-06 02:26 | 49.01859 | 2.51695 | 359 ft | 18 kts | 265° |
| 2026-05-06 02:26 | 49.01846 | 2.51452 | 355 ft | 15 kts | 265° |
| 2026-05-06 02:26 | 49.01850 | 2.51345 | 355 ft | 15 kts | 282° |
| 2026-05-06 02:27 | 49.01942 | 2.51250 | 355 ft | 4 kts | 3° |
| 2026-05-06 02:27 | 49.01943 | 2.51250 | 355 ft | 0 kts | 4° |
| 2026-05-06 02:27 | 49.01944 | 2.51250 | 355 ft | 1 kts | 4° |
| 2026-05-06 02:28 | 49.01951 | 2.51252 | 355 ft | 1 kts | 7° |
| 2026-05-06 02:28 | 49.01985 | 2.51271 | 357 ft | 9 kts | 27° |
| 2026-05-06 02:28 | 49.02047 | 2.51378 | 356 ft | 18 kts | 56° |
| 2026-05-06 02:28 | 49.02078 | 2.51602 | 358 ft | 28 kts | 82° |
| 2026-05-06 02:29 | 49.02115 | 2.52269 | 354 ft | 107 kts | 85° |
| 2026-05-06 02:29 | 49.02199 | 2.53783 | 416 ft | 170 kts | 84° |
| 2026-05-06 02:29 | 49.02340 | 2.55662 | 959 ft | 188 kts | 82° |
| 2026-05-06 02:29 | 49.02490 | 2.57725 | 1639 ft | 198 kts | 85° |
| 2026-05-06 02:30 | 49.02592 | 2.59811 | 2480 ft | 199 kts | 86° |
| 2026-05-06 02:30 | 49.02687 | 2.62008 | 2906 ft | 218 kts | 86° |
| 2026-05-06 02:30 | 49.02794 | 2.64435 | 3264 ft | 243 kts | 86° |
| 2026-05-06 02:30 | 49.02922 | 2.67141 | 4027 ft | 263 kts | 85° |
| 2026-05-06 02:31 | 49.03061 | 2.69951 | 5219 ft | 268 kts | 85° |
| 2026-05-06 02:31 | 49.03265 | 2.72801 | 6392 ft | 274 kts | 76° |
| 2026-05-06 02:31 | 49.04214 | 2.75317 | 7465 ft | 281 kts | 42° |
| 2026-05-06 02:31 | 49.05938 | 2.76668 | 8557 ft | 285 kts | 9° |
| 2026-05-06 02:32 | 49.07901 | 2.76416 | 9616 ft | 288 kts | 340° |
| 2026-05-06 02:32 | 49.09715 | 2.75098 | 10735 ft | 290 kts | 329° |
| 2026-05-06 02:32 | 49.11426 | 2.73425 | 11795 ft | 294 kts | 325° |
| 2026-05-06 02:32 | 49.13187 | 2.71613 | 12389 ft | 317 kts | 326° |
| 2026-05-06 02:33 | 49.15094 | 2.69732 | 12988 ft | 334 kts | 328° |
| 2026-05-06 02:33 | 49.16417 | 2.68497 | 13551 ft | 339 kts | 329° |
| 2026-05-06 02:34 | 49.23415 | 2.62372 | 16532 ft | 356 kts | 325° |
| 2026-05-06 02:34 | 49.25458 | 2.60193 | 17380 ft | 360 kts | 324° |
| 2026-05-06 02:34 | 49.27517 | 2.57965 | 18202 ft | 365 kts | 324° |
| 2026-05-06 02:34 | 49.29594 | 2.55694 | 18999 ft | 369 kts | 324° |
| 2026-05-06 02:35 | 49.31691 | 2.53391 | 19749 ft | 373 kts | 324° |
| 2026-05-06 02:35 | 49.33813 | 2.51062 | 20493 ft | 378 kts | 324° |
| 2026-05-06 02:35 | 49.35962 | 2.48703 | 21202 ft | 382 kts | 324° |
| 2026-05-06 02:35 | 49.38135 | 2.46313 | 21873 ft | 386 kts | 324° |
| 2026-05-06 02:36 | 49.40325 | 2.43899 | 22503 ft | 390 kts | 324° |
| 2026-05-06 02:36 | 49.42540 | 2.41455 | 23106 ft | 393 kts | 324° |
| 2026-05-06 02:36 | 49.44773 | 2.38990 | 23686 ft | 397 kts | 324° |
| 2026-05-06 02:36 | 49.47023 | 2.36505 | 23939 ft | 399 kts | 324° |
| 2026-05-06 02:37 | 49.49258 | 2.34034 | 24004 ft | 387 kts | 324° |
| 2026-05-06 02:37 | 49.51421 | 2.31642 | 24009 ft | 379 kts | 324° |